createdAt,value
2024-01-24T00:01:40.068Z,0.47
2024-01-24T00:04:07.880Z,0.75
2024-01-24T00:06:39.043Z,0.30
2024-01-24T00:09:06.069Z,0.60
2024-01-24T00:11:33.013Z,0.47
2024-01-24T00:13:59.974Z,0.40
2024-01-24T00:16:28.980Z,0.38
2024-01-24T00:18:56.607Z,0.35
2024-01-24T00:21:23.655Z,0.43
2024-01-24T00:23:50.618Z,0.38
2024-01-24T00:26:17.569Z,0.50
2024-01-24T00:28:45.016Z,0.40
2024-01-24T00:31:11.960Z,0.40
2024-01-24T00:33:39.901Z,0.50
2024-01-24T00:36:07.201Z,0.50
2024-01-24T00:38:34.269Z,0.38
2024-01-24T00:41:01.317Z,0.40
2024-01-24T00:43:28.404Z,0.40
2024-01-24T00:45:55.890Z,0.50
2024-01-24T00:48:23.406Z,0.40
2024-01-24T00:50:50.460Z,0.70
2024-01-24T00:53:21.727Z,0.32
2024-01-24T00:55:49.016Z,0.40
2024-01-24T00:58:16.049Z,0.40
2024-01-24T01:00:43.169Z,0.40
2024-01-24T01:03:10.363Z,0.32
2024-01-24T01:05:39.128Z,0.32
2024-01-24T01:08:06.975Z,0.43
2024-01-24T01:10:34.846Z,0.45
2024-01-24T01:13:02.166Z,0.25
2024-01-24T01:15:29.250Z,0.40
2024-01-24T01:17:56.351Z,0.32
2024-01-24T01:20:23.417Z,0.30
2024-01-24T01:22:50.409Z,0.47
2024-01-24T01:25:17.455Z,0.52
2024-01-24T01:27:44.525Z,0.30
2024-01-24T01:30:11.981Z,0.20
2024-01-24T01:32:40.157Z,0.40
2024-01-24T01:35:08.613Z,0.40
2024-01-24T01:37:35.617Z,0.20
2024-01-24T01:40:02.695Z,0.20
2024-01-24T01:42:29.987Z,0.10
2024-01-24T01:44:56.965Z,0.40
2024-01-24T01:47:24.437Z,0.10
2024-01-24T01:49:52.744Z,0.40
2024-01-24T01:52:22.589Z,0.43
2024-01-24T01:54:51.194Z,0.60
2024-01-24T01:57:18.387Z,0.32
2024-01-24T01:59:46.011Z,0.20
2024-01-24T02:02:13.132Z,0.22
2024-01-24T02:04:40.268Z,0.43
2024-01-24T02:07:07.325Z,0.45
2024-01-24T02:09:35.545Z,0.20
2024-01-24T02:12:02.610Z,0.30
2024-01-24T02:14:29.942Z,0.40
2024-01-24T02:16:57.046Z,0.30
2024-01-24T02:19:24.350Z,0.50
2024-01-24T02:21:51.429Z,0.40
2024-01-24T02:24:18.671Z,0.40
2024-01-24T02:26:45.730Z,0.30
2024-01-24T02:29:15.600Z,0.40
2024-01-24T02:31:42.626Z,0.30
2024-01-24T02:34:09.754Z,0.40
2024-01-24T02:36:36.782Z,0.25
2024-01-24T02:39:04.395Z,0.50
2024-01-24T02:41:32.995Z,0.60
2024-01-24T02:43:59.999Z,0.38
2024-01-24T02:46:26.935Z,0.45
2024-01-24T02:48:53.913Z,0.30
2024-01-24T02:51:27.952Z,0.60
2024-01-24T02:53:54.994Z,0.40
2024-01-24T02:56:22.035Z,0.90
2024-01-24T02:58:49.223Z,0.75
2024-01-24T03:01:17.399Z,0.40
2024-01-24T03:03:45.302Z,0.60
2024-01-24T03:06:12.704Z,0.63
2024-01-24T03:09:00.240Z,0.57
2024-01-24T03:11:27.493Z,0.55
2024-01-24T03:13:54.483Z,0.40
2024-01-24T03:16:21.855Z,0.52
2024-01-24T03:18:50.011Z,0.30
2024-01-24T03:21:19.159Z,0.15
2024-01-24T03:23:46.390Z,0.50
2024-01-24T03:26:17.499Z,0.22
2024-01-24T03:28:44.504Z,0.22
2024-01-24T03:31:11.666Z,0.35
2024-01-24T03:33:39.016Z,0.20
2024-01-24T03:36:06.365Z,0.57
2024-01-24T03:38:34.307Z,0.52
2024-01-24T03:41:01.848Z,0.93
2024-01-24T03:43:28.948Z,0.73
2024-01-24T03:45:56.052Z,0.65
2024-01-24T03:48:23.274Z,0.63
2024-01-24T03:50:50.386Z,1.00
2024-01-24T03:53:17.551Z,0.95
2024-01-24T03:55:44.539Z,1.30
2024-01-24T03:58:11.542Z,0.98
2024-01-24T04:00:38.594Z,0.90
2024-01-24T04:03:05.883Z,1.00
2024-01-24T04:05:33.471Z,0.90
2024-01-24T04:08:00.526Z,0.82
2024-01-24T04:10:27.527Z,1.35
2024-01-24T04:12:54.594Z,1.55
2024-01-24T04:15:21.698Z,0.90
2024-01-24T04:17:48.803Z,1.70
2024-01-24T04:20:15.849Z,1.80
2024-01-24T04:22:43.858Z,0.95
2024-01-24T04:25:10.845Z,1.08
2024-01-24T04:27:38.308Z,2.05
2024-01-24T04:30:07.157Z,1.38
2024-01-24T04:32:34.389Z,1.70
2024-01-24T04:35:01.476Z,2.28
2024-01-24T04:37:28.655Z,1.85
2024-01-24T04:39:55.787Z,1.40
2024-01-24T04:42:22.881Z,3.10
2024-01-24T04:44:50.300Z,1.85
2024-01-24T04:47:17.413Z,2.05
2024-01-24T04:49:45.986Z,1.60
2024-01-24T04:52:16.850Z,1.02
2024-01-24T04:54:44.181Z,1.95
2024-01-24T04:57:11.563Z,1.50
2024-01-24T04:59:46.200Z,2.17
2024-01-24T05:02:21.183Z,2.35
2024-01-24T05:04:48.733Z,2.05
2024-01-24T05:07:16.033Z,2.13
2024-01-24T05:09:43.047Z,2.80
2024-01-24T05:12:11.016Z,2.20
2024-01-24T05:14:38.120Z,2.03
2024-01-24T05:17:05.418Z,2.03
2024-01-24T05:19:32.975Z,2.33
2024-01-24T05:21:59.984Z,1.77
2024-01-24T05:24:26.971Z,1.75
2024-01-24T05:26:53.979Z,2.20
2024-01-24T05:29:20.957Z,2.03
2024-01-24T05:31:48.709Z,2.08
2024-01-24T05:34:15.797Z,2.15
2024-01-24T05:36:43.103Z,2.00
2024-01-24T05:39:10.503Z,2.85
2024-01-24T05:41:37.661Z,2.28
2024-01-24T05:44:04.794Z,3.15
2024-01-24T05:46:32.158Z,1.77
2024-01-24T05:49:02.123Z,1.95
2024-01-24T05:51:29.928Z,1.92
2024-01-24T05:53:57.005Z,3.10
2024-01-24T05:56:24.011Z,1.83
2024-01-24T05:58:51.094Z,2.92
2024-01-24T06:01:18.255Z,2.03
2024-01-24T06:03:45.373Z,3.30
2024-01-24T06:06:12.621Z,3.22
2024-01-24T06:08:40.107Z,2.33
2024-01-24T06:11:07.138Z,3.03
2024-01-24T06:13:34.258Z,3.00
2024-01-24T06:16:01.352Z,2.65
2024-01-24T06:18:28.401Z,2.80
2024-01-24T06:20:55.442Z,2.42
2024-01-24T06:23:22.424Z,2.90
2024-01-24T06:25:49.499Z,2.63
2024-01-24T06:28:16.969Z,2.67
2024-01-24T06:30:43.986Z,2.95
2024-01-24T06:33:11.055Z,2.90
2024-01-24T06:35:39.135Z,3.28
2024-01-24T06:38:06.149Z,3.13
2024-01-24T06:40:33.178Z,2.20
2024-01-24T06:43:00.539Z,3.33
2024-01-24T06:45:27.678Z,6.45
2024-01-24T06:47:54.746Z,5.70
2024-01-24T06:50:21.731Z,4.70
2024-01-24T06:52:48.713Z,5.97
2024-01-24T06:55:18.556Z,5.35
2024-01-24T06:57:45.821Z,5.15
2024-01-24T07:00:13.758Z,5.90
2024-01-24T07:02:40.787Z,5.28
2024-01-24T07:05:08.347Z,4.50
2024-01-24T07:07:35.495Z,5.65
2024-01-24T07:10:02.689Z,6.60
2024-01-24T07:12:29.772Z,5.57
2024-01-24T07:14:57.793Z,4.95
2024-01-24T07:17:24.952Z,5.32
2024-01-24T07:19:52.561Z,5.78
2024-01-24T07:22:19.786Z,5.68
2024-01-24T07:24:46.968Z,5.47
2024-01-24T07:27:14.029Z,6.13
2024-01-24T07:29:41.088Z,5.80
2024-01-24T07:32:08.061Z,5.50
2024-01-24T07:34:37.238Z,5.72
2024-01-24T07:37:04.890Z,5.45
2024-01-24T07:39:32.331Z,5.57
2024-01-24T07:41:59.446Z,4.70
2024-01-24T07:44:27.255Z,5.30
2024-01-24T07:46:54.550Z,5.45
2024-01-24T07:49:22.195Z,6.38
2024-01-24T07:51:50.520Z,5.80
2024-01-24T07:54:22.028Z,5.13
2024-01-24T07:56:49.219Z,6.18
2024-01-24T07:59:17.845Z,5.43
2024-01-24T08:01:48.166Z,6.05
2024-01-24T08:04:16.903Z,5.63
2024-01-24T08:06:47.329Z,4.43
2024-01-24T08:09:15.632Z,4.97
2024-01-24T08:11:42.968Z,6.40
2024-01-24T08:14:10.134Z,5.10
2024-01-24T08:16:37.377Z,5.55
2024-01-24T08:19:04.770Z,5.57
2024-01-24T08:21:32.207Z,3.38
2024-01-24T08:23:59.404Z,4.88
2024-01-24T08:26:26.393Z,4.63
2024-01-24T08:28:53.895Z,4.97
2024-01-24T08:31:21.151Z,6.05
2024-01-24T08:33:51.409Z,6.28
2024-01-24T08:36:20.400Z,5.18
2024-01-24T08:38:47.650Z,4.13
2024-01-24T08:41:14.703Z,4.80
2024-01-24T08:43:41.814Z,5.63
2024-01-24T08:46:08.883Z,3.83
2024-01-24T08:48:35.954Z,4.60
2024-01-24T08:51:03.091Z,4.45
2024-01-24T08:53:30.040Z,2.78
2024-01-24T08:55:57.322Z,4.00
2024-01-24T08:58:24.296Z,3.28
2024-01-24T09:00:53.004Z,5.10
2024-01-24T09:03:20.888Z,6.38
2024-01-24T09:05:48.312Z,5.53
2024-01-24T09:08:18.558Z,4.53
2024-01-24T09:10:45.835Z,5.72
2024-01-24T09:13:14.084Z,6.07
2024-01-24T09:15:41.406Z,5.85
2024-01-24T09:18:09.364Z,5.15
2024-01-24T09:20:36.661Z,5.20
2024-01-24T09:23:03.765Z,5.00
2024-01-24T09:25:31.914Z,5.50
2024-01-24T09:27:59.139Z,7.65
2024-01-24T09:30:26.579Z,6.07
2024-01-24T09:32:53.755Z,5.93
2024-01-24T09:35:21.017Z,6.25
2024-01-24T09:37:48.190Z,5.82
2024-01-24T09:40:18.388Z,5.53
2024-01-24T09:42:46.099Z,5.85
2024-01-24T09:45:19.043Z,5.78
2024-01-24T09:50:17.461Z,6.18
2024-01-24T09:52:47.271Z,5.15
2024-01-24T09:55:18.741Z,6.32
2024-01-24T09:57:49.950Z,5.65
2024-01-24T10:00:17.747Z,6.45
2024-01-24T10:02:47.880Z,5.65
2024-01-24T10:05:19.142Z,5.25
2024-01-24T10:07:46.939Z,5.78
2024-01-24T10:10:14.939Z,3.03
2024-01-24T10:12:45.417Z,7.05
2024-01-24T10:15:13.140Z,5.78
2024-01-24T10:17:44.507Z,5.15
2024-01-24T10:20:13.405Z,6.78
2024-01-24T10:22:43.355Z,5.53
2024-01-24T10:25:12.225Z,5.13
2024-01-24T10:27:40.970Z,6.07
2024-01-24T10:30:13.389Z,5.93
2024-01-24T10:32:45.653Z,5.80
2024-01-24T10:35:13.708Z,5.75
2024-01-24T10:37:43.183Z,6.10
2024-01-24T10:40:16.455Z,6.20
2024-01-24T10:42:44.720Z,6.40
2024-01-24T10:45:12.216Z,4.30
2024-01-24T10:47:41.673Z,4.32
2024-01-24T10:50:11.127Z,5.45
2024-01-24T10:52:40.680Z,8.02
2024-01-24T10:55:12.527Z,4.97
2024-01-24T10:57:44.617Z,5.20
2024-01-24T11:00:14.704Z,4.90
2024-01-24T11:02:43.011Z,4.95
2024-01-24T11:05:34.900Z,5.82
2024-01-24T11:08:10.750Z,4.18
2024-01-24T11:10:44.015Z,5.13
2024-01-24T11:13:13.017Z,5.43
2024-01-24T11:15:41.770Z,5.80
2024-01-24T11:18:22.565Z,6.03
2024-01-24T11:20:56.640Z,5.55
2024-01-24T11:23:46.240Z,5.47
2024-01-24T11:26:33.989Z,5.95
2024-01-24T11:29:14.209Z,4.63
2024-01-24T11:31:43.598Z,5.32
2024-01-24T11:34:13.168Z,3.95
2024-01-24T11:36:53.516Z,5.60
2024-01-24T11:39:31.794Z,6.50
2024-01-24T11:42:34.858Z,4.40
2024-01-24T11:45:24.936Z,4.38
2024-01-24T11:47:56.016Z,5.88
2024-01-24T11:50:23.309Z,5.85
2024-01-24T11:52:50.595Z,4.70
2024-01-24T11:55:17.711Z,5.65
2024-01-24T11:57:44.716Z,5.80
2024-01-24T12:00:15.866Z,5.70
2024-01-24T12:02:43.113Z,4.65
2024-01-24T12:05:11.037Z,4.95
2024-01-24T12:07:39.154Z,6.72
2024-01-24T12:10:09.305Z,4.55
2024-01-24T12:12:37.407Z,3.90
2024-01-24T12:15:05.422Z,5.18
2024-01-24T12:17:38.669Z,5.18
2024-01-24T12:20:09.871Z,5.60
2024-01-24T12:22:38.225Z,4.68
2024-01-24T12:25:08.447Z,4.57
2024-01-24T12:27:35.935Z,5.50
2024-01-24T12:30:04.107Z,4.25
2024-01-24T12:32:31.137Z,5.80
2024-01-24T12:35:00.699Z,5.90
2024-01-24T12:37:28.825Z,6.05
2024-01-24T12:39:56.373Z,5.38
2024-01-24T12:42:24.420Z,5.05
2024-01-24T12:44:55.053Z,5.15
2024-01-24T12:47:23.307Z,5.10
2024-01-24T12:49:50.554Z,5.28
2024-01-24T12:52:18.388Z,3.88
2024-01-24T12:54:45.682Z,4.80
2024-01-24T12:57:12.829Z,5.75
2024-01-24T12:59:39.877Z,5.53
2024-01-24T13:02:07.139Z,5.82
2024-01-24T13:04:34.602Z,4.25
2024-01-24T13:07:01.961Z,4.18
2024-01-24T13:09:31.429Z,4.22
2024-01-24T13:14:29.965Z,3.85
2024-01-24T13:16:57.107Z,5.22
2024-01-24T13:19:25.482Z,4.65
2024-01-24T13:21:52.592Z,5.13
2024-01-24T13:24:19.697Z,3.35
2024-01-24T13:26:47.111Z,4.22
2024-01-24T13:29:14.215Z,4.28
2024-01-24T13:31:41.193Z,5.55
2024-01-24T13:34:08.471Z,4.15
2024-01-24T13:36:35.947Z,4.43
2024-01-24T13:39:03.024Z,4.88
2024-01-24T13:41:30.092Z,4.55
2024-01-24T13:43:57.038Z,4.55
2024-01-24T13:46:25.824Z,4.88
2024-01-24T13:48:53.606Z,4.13
2024-01-24T13:51:26.996Z,6.05
2024-01-24T13:53:58.580Z,4.15
2024-01-24T13:56:25.821Z,5.90
2024-01-24T13:58:53.393Z,4.72
2024-01-24T14:01:20.587Z,5.22
2024-01-24T14:03:49.103Z,4.93
2024-01-24T14:06:18.828Z,4.75
2024-01-24T14:08:47.192Z,4.03
2024-01-24T14:11:15.185Z,4.95
2024-01-24T14:13:42.482Z,5.00
2024-01-24T14:16:09.665Z,4.97
2024-01-24T14:18:36.801Z,4.68
2024-01-24T14:21:04.293Z,5.38
2024-01-24T14:23:31.253Z,3.90
2024-01-24T14:25:58.298Z,5.07
2024-01-24T14:28:26.385Z,5.10
2024-01-24T14:30:53.585Z,3.95
2024-01-24T14:33:27.336Z,4.70
2024-01-24T14:36:00.891Z,5.00
2024-01-24T14:38:27.883Z,4.05
2024-01-24T14:40:54.839Z,4.38
2024-01-24T14:43:21.835Z,5.10
2024-01-24T14:45:48.928Z,4.75
2024-01-24T14:48:16.137Z,4.13
2024-01-24T14:50:44.201Z,3.80
2024-01-24T14:53:11.226Z,4.80
2024-01-24T14:55:38.364Z,3.85
2024-01-24T14:58:06.188Z,6.25
2024-01-24T15:00:33.356Z,4.55
2024-01-24T15:03:00.853Z,4.15
2024-01-24T15:05:27.848Z,3.17
2024-01-24T15:07:55.501Z,3.35
2024-01-24T15:10:23.528Z,4.65
2024-01-24T15:12:50.729Z,3.75
2024-01-24T15:15:18.042Z,4.60
2024-01-24T15:17:45.178Z,4.35
2024-01-24T15:20:12.619Z,3.72
2024-01-24T15:22:41.831Z,3.70
2024-01-24T15:25:10.139Z,3.13
2024-01-24T15:27:37.358Z,3.50
2024-01-24T15:30:06.108Z,4.20
2024-01-24T15:32:34.468Z,2.70
2024-01-24T15:35:01.808Z,3.80
2024-01-24T15:37:28.874Z,4.93
2024-01-24T15:39:57.065Z,2.97
2024-01-24T15:42:27.486Z,3.00
2024-01-24T15:44:54.765Z,3.03
2024-01-24T15:47:21.792Z,4.72
2024-01-24T15:49:49.309Z,5.47
2024-01-24T15:52:18.759Z,5.70
2024-01-24T15:54:47.233Z,5.22
2024-01-24T15:57:14.287Z,4.85
2024-01-24T15:59:41.329Z,4.63
2024-01-24T16:02:08.838Z,1.85
2024-01-24T16:04:38.211Z,2.22
2024-01-24T16:07:05.587Z,1.95
2024-01-24T16:09:32.837Z,3.00
2024-01-24T16:12:00.235Z,2.55
2024-01-24T16:14:28.869Z,2.03
2024-01-24T16:16:58.148Z,2.42
2024-01-24T16:19:25.728Z,1.83
2024-01-24T16:21:54.513Z,1.85
2024-01-24T16:24:22.131Z,1.67
2024-01-24T16:26:49.297Z,1.90
2024-01-24T16:29:16.476Z,3.03
2024-01-24T16:31:43.574Z,2.47
2024-01-24T16:34:11.230Z,2.22
2024-01-24T16:36:38.681Z,2.35
2024-01-24T16:39:05.782Z,1.88
2024-01-24T16:41:33.094Z,1.23
2024-01-24T16:44:00.061Z,1.58
2024-01-24T16:46:27.609Z,1.73
2024-01-24T16:48:56.616Z,1.85
2024-01-24T16:51:23.982Z,1.25
2024-01-24T16:53:51.176Z,1.27
2024-01-24T16:56:18.116Z,1.80
2024-01-24T16:58:45.062Z,1.77
2024-01-24T17:01:12.425Z,1.65
2024-01-24T17:03:39.579Z,1.90
2024-01-24T17:06:08.847Z,2.30
2024-01-24T17:08:36.363Z,2.08
2024-01-24T17:11:03.610Z,1.42
2024-01-24T17:13:30.648Z,2.17
2024-01-24T17:16:00.296Z,2.08
2024-01-24T17:18:27.747Z,2.03
2024-01-24T17:20:57.198Z,1.75
2024-01-24T17:23:26.356Z,2.45
2024-01-24T17:25:53.353Z,2.63
2024-01-24T17:28:20.361Z,2.47
2024-01-24T17:30:48.745Z,2.80
2024-01-24T17:33:16.185Z,2.15
2024-01-24T17:35:44.153Z,2.28
2024-01-24T17:38:11.475Z,1.85
2024-01-24T17:40:38.517Z,2.17
2024-01-24T17:43:05.855Z,1.65
2024-01-24T17:45:33.089Z,1.95
2024-01-24T17:48:00.316Z,2.45
2024-01-24T17:50:27.320Z,2.25
2024-01-24T17:52:54.594Z,2.25
2024-01-24T17:55:22.071Z,2.58
2024-01-24T17:57:49.199Z,2.33
2024-01-24T18:00:16.910Z,2.30
2024-01-24T18:02:44.127Z,2.35
2024-01-24T18:05:11.386Z,2.58
2024-01-24T18:07:39.240Z,2.55
2024-01-24T18:10:07.191Z,2.47
2024-01-24T18:12:34.208Z,2.30
2024-01-24T18:15:01.180Z,2.80
2024-01-24T18:17:28.373Z,2.90
2024-01-24T18:19:56.201Z,2.63
2024-01-24T18:22:23.810Z,1.83
2024-01-24T18:24:50.962Z,2.05
2024-01-24T18:27:18.410Z,1.80
2024-01-24T18:29:45.889Z,2.22
2024-01-24T18:32:14.546Z,1.98
2024-01-24T18:34:42.385Z,2.28
2024-01-24T18:37:09.575Z,2.17
2024-01-24T18:39:36.667Z,2.58
2024-01-24T18:42:03.937Z,2.30
2024-01-24T18:44:31.146Z,2.13
2024-01-24T18:46:58.246Z,1.75
2024-01-24T18:49:25.994Z,2.08
2024-01-24T18:51:53.159Z,1.83
2024-01-24T18:54:20.256Z,1.90
2024-01-24T18:56:47.385Z,1.85
2024-01-24T18:59:14.739Z,1.98
2024-01-24T19:01:42.116Z,1.67
2024-01-24T19:04:09.502Z,2.08
2024-01-24T19:06:37.175Z,1.25
2024-01-24T19:09:04.320Z,2.17
2024-01-24T19:11:31.733Z,1.55
2024-01-24T19:13:59.094Z,1.98
2024-01-24T19:16:26.782Z,2.05
2024-01-24T19:18:54.124Z,2.65
2024-01-24T19:21:21.218Z,2.20
2024-01-24T19:23:48.227Z,1.98
2024-01-24T19:26:15.299Z,2.00
2024-01-24T19:28:42.515Z,2.28
2024-01-24T19:31:09.679Z,2.42
2024-01-24T19:33:36.800Z,2.58
2024-01-24T19:36:04.545Z,2.30
2024-01-24T19:38:31.661Z,2.42
2024-01-24T19:40:59.290Z,2.22
2024-01-24T19:43:26.346Z,2.33
2024-01-24T19:45:53.449Z,2.70
2024-01-24T19:48:20.494Z,2.45
2024-01-24T19:50:47.682Z,2.22
2024-01-24T19:53:17.808Z,2.28
2024-01-24T19:55:51.514Z,2.17
2024-01-24T19:58:20.380Z,1.83
2024-01-24T20:00:47.565Z,2.10
2024-01-24T20:03:17.435Z,2.28
2024-01-24T20:05:44.650Z,2.70
2024-01-24T20:08:11.869Z,2.85
2024-01-24T20:10:38.901Z,2.45
2024-01-24T20:13:05.993Z,1.85
2024-01-24T20:15:33.161Z,2.67
2024-01-24T20:18:00.509Z,3.00
2024-01-24T20:20:27.729Z,2.90
2024-01-24T20:22:54.737Z,2.97
2024-01-24T20:25:21.869Z,3.03
2024-01-24T20:27:49.716Z,3.42
2024-01-24T20:30:17.019Z,2.97
2024-01-24T20:32:52.842Z,2.67
2024-01-24T20:35:24.801Z,3.22
2024-01-24T20:37:51.952Z,2.92
2024-01-24T20:40:19.000Z,2.42
2024-01-24T20:42:46.135Z,2.42
2024-01-24T20:45:13.242Z,3.05
2024-01-24T20:47:40.351Z,2.55
2024-01-24T20:50:08.279Z,2.30
2024-01-24T20:52:35.231Z,3.10
2024-01-24T20:55:02.479Z,3.42
2024-01-24T20:57:30.270Z,2.33
2024-01-24T20:59:57.496Z,2.90
2024-01-24T21:02:24.611Z,2.38
2024-01-24T21:04:52.051Z,2.83
2024-01-24T21:07:19.372Z,1.88
2024-01-24T21:09:46.548Z,2.85
2024-01-24T21:12:13.553Z,1.95
2024-01-24T21:14:40.713Z,2.65
2024-01-24T21:17:07.682Z,2.38
2024-01-24T21:19:34.859Z,2.72
2024-01-24T21:22:02.042Z,2.40
2024-01-24T21:24:29.183Z,2.33
2024-01-24T21:26:56.224Z,3.08
2024-01-24T21:29:23.176Z,3.10
2024-01-24T21:31:50.145Z,2.38
2024-01-24T21:34:18.313Z,2.55
2024-01-24T21:36:48.487Z,3.17
2024-01-24T21:39:17.397Z,3.58
2024-01-24T21:41:44.405Z,3.72
2024-01-24T21:44:11.354Z,2.40
2024-01-24T21:46:38.383Z,2.75
2024-01-24T21:49:05.684Z,2.67
2024-01-24T21:51:32.719Z,2.83
2024-01-24T21:53:59.673Z,2.65
2024-01-24T21:56:26.608Z,2.20
2024-01-24T21:58:56.316Z,2.72
2024-01-24T22:01:24.339Z,2.97
2024-01-24T22:03:52.095Z,2.58
2024-01-24T22:06:19.344Z,3.95
2024-01-24T22:08:46.411Z,2.83
2024-01-24T22:11:15.408Z,2.70
2024-01-24T22:13:42.611Z,2.63
2024-01-24T22:16:09.774Z,3.50
2024-01-24T22:18:41.227Z,3.05
2024-01-24T22:21:14.728Z,3.33
2024-01-24T22:23:41.718Z,3.35
2024-01-24T22:26:08.702Z,2.35
2024-01-24T22:28:35.764Z,2.55
2024-01-24T22:31:02.853Z,2.58
2024-01-24T22:33:30.092Z,1.90
2024-01-24T22:35:57.297Z,2.55
2024-01-24T22:38:25.020Z,2.53
2024-01-24T22:40:53.732Z,2.13
2024-01-24T22:43:20.817Z,2.92
2024-01-24T22:45:47.977Z,3.13
2024-01-24T22:48:17.668Z,2.38
2024-01-24T22:50:44.781Z,2.15
2024-01-24T22:53:11.797Z,2.22
2024-01-24T22:55:38.781Z,2.15
2024-01-24T22:58:05.884Z,2.78
2024-01-24T23:00:32.986Z,1.95
2024-01-24T23:03:00.145Z,2.47
2024-01-24T23:05:27.170Z,2.92
2024-01-24T23:07:54.386Z,3.30
2024-01-24T23:10:21.704Z,3.58
2024-01-24T23:12:49.073Z,2.55
2024-01-24T23:15:16.056Z,3.08
2024-01-24T23:17:43.205Z,2.08
2024-01-24T23:20:11.054Z,3.40
2024-01-24T23:22:38.092Z,2.55
2024-01-24T23:25:06.459Z,2.65
2024-01-24T23:27:33.525Z,2.38
2024-01-24T23:30:00.491Z,2.47
2024-01-24T23:32:28.191Z,2.45
2024-01-24T23:34:55.545Z,2.33
2024-01-24T23:37:22.761Z,2.03
2024-01-24T23:39:49.807Z,2.67
2024-01-24T23:42:17.334Z,2.08
2024-01-24T23:44:44.352Z,2.33
2024-01-24T23:47:11.342Z,2.25
2024-01-24T23:49:39.233Z,3.05
2024-01-24T23:52:07.051Z,2.13
2024-01-24T23:54:34.241Z,1.80
2024-01-24T23:57:01.273Z,2.28
2024-01-24T23:59:28.285Z,2.05
